Time;durP1;ratioP1;P1;durP2;ratioP2;P2;SDS_P1;SDS_P2;PMS_P1;PMS_P2;Temp;Humidity;BMP_temperature;BMP_pressure;BME280_temperature;BME280_humidity;BME280_pressure;Samples;Min_cycle;Max_cycle;Signal;HPM_P1;HPM_P2
2023/10/12 00:02:21;;;;;;;11.20;1.42;;;8.20;99.90;;;;;;4959577;29;20453;-92
2023/10/12 00:04:53;;;;;;;13.20;3.00;;;8.10;99.90;;;;;;4959496;29;20030;-94
2023/10/12 00:07:36;;;;;;;5.53;1.23;;;8.10;99.90;;;;;;4956564;29;20046;-94
2023/10/12 00:12:44;;;;;;;7.45;1.45;;;8.00;99.90;;;;;;4955650;28;20035;-94
2023/10/12 00:17:53;;;;;;;5.28;1.13;;;8.00;99.90;;;;;;4969884;28;20027;-93
2023/10/12 00:23:10;;;;;;;6.72;1.10;;;7.90;99.90;;;;;;4964699;28;20115;-94
2023/10/12 00:25:46;;;;;;;7.05;1.30;;;7.90;99.90;;;;;;4974671;28;20047;-93
2023/10/12 00:28:19;;;;;;;4.97;1.30;;;7.90;99.90;;;;;;4966823;29;20038;-94
2023/10/12 00:30:47;;;;;;;4.80;1.10;;;7.90;99.90;;;;;;4972201;29;20019;-93
2023/10/12 00:33:13;;;;;;;7.30;1.00;;;7.90;99.90;;;;;;4967889;29;20086;-93
2023/10/12 00:35:39;;;;;;;6.22;0.95;;;7.80;99.90;;;;;;4967022;28;20035;-93
2023/10/12 00:38:39;;;;;;;6.03;1.00;;;7.80;99.90;;;;;;4967020;29;20520;-93
2023/10/12 00:41:03;;;;;;;4.78;0.82;;;7.70;99.90;;;;;;4961101;28;20449;-92
2023/10/12 00:43:36;;;;;;;2.63;0.60;;;7.70;99.90;;;;;;4964119;29;20035;-94
2023/10/12 00:51:49;;;;;;;1.90;0.80;;;7.60;99.90;;;;;;4956011;28;20027;-93
2023/10/12 00:54:25;;;;;;;4.72;0.82;;;7.60;99.90;;;;;;4954199;29;20118;-93
2023/10/12 00:56:56;;;;;;;3.60;1.13;;;7.60;99.90;;;;;;4954607;29;20035;-94
2023/10/12 00:59:22;;;;;;;;;;;7.50;99.90;;;;;;4955266;29;20036;-92
2023/10/12 01:01:49;;;;;;;4.50;0.93;;;7.40;99.90;;;;;;4955380;29;19921;-94
2023/10/12 01:04:15;;;;;;;13.07;1.92;;;7.40;99.90;;;;;;4954998;29;20023;-94
2023/10/12 01:06:44;;;;;;;5.05;1.13;;;7.40;99.90;;;;;;4955070;29;20548;-93
2023/10/12 01:09:19;;;;;;;4.30;1.20;;;7.40;99.90;;;;;;4955470;29;20446;-93
2023/10/12 01:12:00;;;;;;;5.60;1.73;;;7.40;99.90;;;;;;4955022;29;20086;-93
2023/10/12 01:14:27;;;;;;;7.57;0.93;;;7.40;99.90;;;;;;4954994;29;20031;-93
2023/10/12 01:16:57;;;;;;;3.22;0.82;;;7.30;99.90;;;;;;4954553;29;20366;-93
2023/10/12 01:19:23;;;;;;;4.35;0.90;;;7.30;99.90;;;;;;4954420;29;20031;-94
2023/10/12 01:21:57;;;;;;;3.67;0.70;;;7.30;99.90;;;;;;4954618;29;20046;-93
2023/10/12 01:24:32;;;;;;;5.03;0.98;;;7.30;99.90;;;;;;4954102;29;20035;-94
2023/10/12 01:26:59;;;;;;;6.50;0.95;;;7.30;99.90;;;;;;4954227;29;20087;-93
2023/10/12 01:29:25;;;;;;;5.60;0.88;;;7.30;99.90;;;;;;4953701;29;20043;-92
2023/10/12 01:32:41;;;;;;;5.07;0.85;;;7.20;99.90;;;;;;4959748;28;20039;-95
2023/10/12 01:34:49;;;;;;;8.23;1.10;;;7.20;99.90;;;;;;4945414;29;20131;-93
2023/10/12 01:37:25;;;;;;;8.00;0.98;;;7.20;99.90;;;;;;4953745;29;20484;-93
2023/10/12 01:45:05;;;;;;;5.25;0.90;;;7.10;99.90;;;;;;4954752;28;20433;-93
2023/10/12 01:47:36;;;;;;;5.88;1.20;;;7.00;99.90;;;;;;4955534;28;20141;-93
2023/10/12 01:50:05;;;;;;;4.50;1.42;;;7.10;99.90;;;;;;4957008;29;20034;-93
2023/10/12 01:52:32;;;;;;;6.15;1.17;;;7.00;99.90;;;;;;4956809;29;20139;-93
2023/10/12 01:54:58;;;;;;;2.22;1.30;;;7.00;99.90;;;;;;4956933;29;20031;-92
2023/10/12 01:57:32;;;;;;;8.65;1.25;;;7.00;99.90;;;;;;4956606;29;20104;-93
2023/10/12 01:59:58;;;;;;;5.05;0.75;;;6.90;99.90;;;;;;4956536;29;20497;-92
2023/10/12 02:02:24;;;;;;;5.68;1.00;;;6.90;99.90;;;;;;4956570;29;20433;-93
2023/10/12 02:04:51;;;;;;;6.68;0.70;;;6.90;99.90;;;;;;4956555;29;20127;-92
2023/10/12 02:07:17;;;;;;;4.78;0.90;;;6.80;99.90;;;;;;4956666;29;20027;-93
2023/10/12 02:09:44;;;;;;;11.18;1.00;;;6.80;99.90;;;;;;4956564;29;20469;-93
2023/10/12 02:12:12;;;;;;;7.97;1.02;;;6.70;99.90;;;;;;4956660;29;20094;-92
2023/10/12 02:14:41;;;;;;;3.85;0.90;;;6.70;99.90;;;;;;4956369;29;20027;-93
2023/10/12 02:17:10;;;;;;;6.80;1.25;;;6.60;99.90;;;;;;4956351;29;20060;-93
2023/10/12 02:22:05;;;;;;;4.95;0.70;;;6.60;99.90;;;;;;4957769;28;20075;-91
2023/10/12 02:24:35;;;;;;;8.05;1.15;;;6.50;99.90;;;;;;4956380;29;20050;-93
2023/10/12 02:27:01;;;;;;;2.72;0.80;;;6.50;99.90;;;;;;4967512;28;20023;-92
2023/10/12 02:29:28;;;;;;;5.47;0.90;;;6.50;99.90;;;;;;4975591;29;20042;-90
2023/10/12 02:31:58;;;;;;;4.50;0.93;;;6.50;99.90;;;;;;4969080;29;20023;-93
2023/10/12 02:34:31;;;;;;;3.10;0.82;;;6.40;99.90;;;;;;4957591;29;20027;-92
2023/10/12 02:39:41;;;;;;;6.68;1.30;;;6.40;99.90;;;;;;4957379;28;20630;-92
2023/10/12 02:47:21;;;;;;;6.20;0.90;;;6.30;99.90;;;;;;4956726;28;20083;-92
2023/10/12 02:49:47;;;;;;;2.88;1.15;;;6.30;99.90;;;;;;4956152;29;20024;-93
2023/10/12 02:52:14;;;;;;;5.55;1.10;;;6.20;99.90;;;;;;4956451;29;20035;-93
2023/10/12 02:54:50;;;;;;;6.55;1.05;;;6.20;99.90;;;;;;4956644;29;20027;-92
2023/10/12 02:57:25;;;;;;;4.00;1.13;;;6.20;99.90;;;;;;4956189;28;20122;-93
2023/10/12 02:59:59;;;;;;;5.00;1.02;;;6.20;99.90;;;;;;4957048;29;20020;-93
2023/10/12 03:02:34;;;;;;;5.15;0.90;;;6.20;99.90;;;;;;4956133;29;20043;-93
2023/10/12 03:05:17;;;;;;;5.75;1.75;;;6.20;99.90;;;;;;4956243;29;20069;-92
2023/10/12 03:07:44;;;;;;;8.32;1.27;;;6.20;99.90;;;;;;4956421;29;20122;-93
2023/10/12 03:10:25;;;;;;;7.18;1.60;;;6.20;99.90;;;;;;4956372;29;20024;-92
2023/10/12 03:12:55;;;;;;;7.05;1.55;;;6.20;99.90;;;;;;4956154;29;20019;-94
2023/10/12 03:15:31;;;;;;;6.93;1.60;;;6.20;99.90;;;;;;4955977;29;20539;-92
2023/10/12 03:17:58;;;;;;;5.60;1.60;;;6.20;99.90;;;;;;4956284;29;20177;-93
2023/10/12 03:20:28;;;;;;;6.50;1.50;;;6.30;99.90;;;;;;4956189;29;20031;-91
2023/10/12 03:22:59;;;;;;;7.43;1.35;;;6.30;99.90;;;;;;4956352;29;20039;-92
2023/10/12 03:28:12;;;;;;;5.85;1.17;;;6.30;99.90;;;;;;4957613;29;20034;-93
2023/10/12 03:30:43;;;;;;;4.13;1.20;;;6.30;99.90;;;;;;4956110;29;20050;-92
2023/10/12 03:33:15;;;;;;;4.97;1.05;;;6.30;99.90;;;;;;4963369;29;20031;-93
2023/10/12 03:38:40;;;;;;;7.05;2.03;;;6.30;99.90;;;;;;4934504;28;20063;-92
2023/10/12 03:43:54;;;;;;;12.48;1.38;;;6.30;99.90;;;;;;4965832;28;20374;-93
2023/10/12 03:46:32;;;;;;;6.97;1.20;;;6.20;99.90;;;;;;4965063;28;20081;-92
2023/10/12 03:51:41;;;;;;;5.22;1.38;;;6.20;99.90;;;;;;4961263;28;20389;-93
2023/10/12 03:56:53;;;;;;;3.78;1.33;;;6.10;99.90;;;;;;4958475;29;20415;-92
2023/10/12 03:59:25;;;;;;;4.70;1.23;;;6.10;99.90;;;;;;4956453;29;20032;-93
2023/10/12 04:01:54;;;;;;;2.47;1.02;;;6.00;99.90;;;;;;4956292;29;20082;-93
2023/10/12 04:04:27;;;;;;;5.07;1.38;;;6.00;99.90;;;;;;4956182;29;20027;-92
2023/10/12 04:09:31;;;;;;;6.60;1.40;;;6.00;99.90;;;;;;4956556;28;20477;-92
2023/10/12 04:12:29;;;;;;;5.10;1.48;;;6.00;99.90;;;;;;4955887;29;20385;-92
2023/10/12 04:14:56;;;;;;;5.45;1.83;;;6.00;99.90;;;;;;4955593;29;20090;-93
2023/10/12 04:17:41;;;;;;;5.45;1.98;;;5.90;99.90;;;;;;4955444;29;20027;-93
2023/10/12 04:20:21;;;;;;;4.82;1.60;;;6.00;99.90;;;;;;4955398;29;20480;-93
2023/10/12 04:25:21;;;;;;;5.22;1.40;;;5.90;99.90;;;;;;4956435;28;20031;-93
2023/10/12 04:28:17;;;;;;;4.18;1.40;;;5.90;99.90;;;;;;4955050;29;20039;-93
2023/10/12 04:33:24;;;;;;;2.88;1.40;;;5.90;99.90;;;;;;4956777;28;20050;-92
2023/10/12 04:35:57;;;;;;;3.53;1.40;;;5.90;99.90;;;;;;4954600;29;20043;-91
2023/10/12 04:38:28;;;;;;;5.25;1.50;;;5.90;99.90;;;;;;4954749;29;20437;-92
2023/10/12 04:43:39;;;;;;;4.25;1.52;;;5.80;99.90;;;;;;4956237;29;20109;-93
2023/10/12 04:48:41;;;;;;;4.97;1.90;;;5.70;99.90;;;;;;4955730;28;20428;-92
2023/10/12 04:51:07;;;;;;;4.93;1.55;;;5.70;99.90;;;;;;4954391;29;20033;-92
2023/10/12 04:56:18;;;;;;;8.38;1.67;;;5.70;99.90;;;;;;4955891;29;20042;-91
2023/10/12 04:59:14;;;;;;;6.18;1.50;;;5.70;99.90;;;;;;4954365;29;20040;-92
2023/10/12 05:01:42;;;;;;;5.28;1.50;;;5.80;99.90;;;;;;4955200;29;20050;-92
2023/10/12 05:04:19;;;;;;;4.68;1.40;;;5.80;99.90;;;;;;4955536;28;20540;-92
2023/10/12 05:07:07;;;;;;;6.95;1.90;;;5.80;99.90;;;;;;4954763;29;20023;-92
2023/10/12 05:09:33;;;;;;;4.53;1.40;;;5.80;99.90;;;;;;4955406;28;20027;-92
2023/10/12 05:11:58;;;;;;;3.75;1.30;;;5.70;99.90;;;;;;4954586;29;20074;-92
2023/10/12 05:14:25;;;;;;;3.15;1.10;;;5.70;99.90;;;;;;4954619;29;20031;-92
2023/10/12 05:16:51;;;;;;;3.83;1.00;;;5.70;99.90;;;;;;4955068;29;20028;-92
2023/10/12 05:19:17;;;;;;;3.78;1.38;;;5.60;99.90;;;;;;4954729;29;20054;-92
2023/10/12 05:21:43;;;;;;;3.72;1.10;;;5.70;99.90;;;;;;4957202;28;20031;-92
2023/10/12 05:24:09;;;;;;;6.95;1.00;;;5.70;99.90;;;;;;4958067;29;20117;-92
2023/10/12 05:26:36;;;;;;;4.50;0.82;;;5.70;99.90;;;;;;4957971;29;20023;-92
2023/10/12 05:31:58;;;;;;;4.70;0.90;;;5.60;99.90;;;;;;4959152;29;20046;-91
2023/10/12 05:34:44;;;;;;;5.03;1.20;;;5.60;99.90;;;;;;4957914;29;20146;-92
2023/10/12 05:37:37;;;;;;;2.95;0.90;;;5.60;99.90;;;;;;4958706;29;20035;-91
2023/10/12 05:40:11;;;;;;;6.65;1.10;;;5.60;99.90;;;;;;4958096;29;20422;-92
2023/10/12 05:42:39;;;;;;;7.22;1.13;;;5.60;99.90;;;;;;4957536;29;20039;-93
2023/10/12 05:45:51;;;;;;;12.02;1.25;;;5.60;99.90;;;;;;4957619;29;20039;-93
2023/10/12 05:47:53;;;;;;;4.25;1.00;;;5.60;99.90;;;;;;4948150;28;20129;-93
2023/10/12 05:50:23;;;;;;;6.75;1.42;;;5.60;99.90;;;;;;4957580;29;20365;-93
2023/10/12 05:52:52;;;;;;;6.65;1.98;;;5.70;99.90;;;;;;4957454;29;20520;-93
2023/10/12 05:55:40;;;;;;;8.18;1.13;;;5.70;99.90;;;;;;4957508;29;20035;-93
2023/10/12 05:58:11;;;;;;;5.40;0.95;;;5.60;99.90;;;;;;4958219;29;20041;-93
2023/10/12 06:00:44;;;;;;;11.40;1.70;;;5.60;99.90;;;;;;4957662;29;20027;-92
2023/10/12 06:03:15;;;;;;;6.68;1.42;;;5.60;99.90;;;;;;4957208;29;20043;-92
2023/10/12 06:05:42;;;;;;;4.13;1.30;;;5.60;99.90;;;;;;4957415;29;20063;-92
2023/10/12 06:08:10;;;;;;;3.17;0.95;;;5.60;99.90;;;;;;4957297;29;20548;-92
2023/10/12 06:10:42;;;;;;;5.75;1.08;;;5.60;99.90;;;;;;4957178;29;20401;-90
2023/10/12 06:13:13;;;;;;;7.20;1.25;;;5.60;99.90;;;;;;4958249;29;20019;-92
2023/10/12 06:15:40;;;;;;;5.00;1.10;;;5.60;99.90;;;;;;4957399;29;20134;-91
2023/10/12 06:18:21;;;;;;;2.60;1.00;;;5.60;99.90;;;;;;4957064;29;20035;-91
2023/10/12 06:20:58;;;;;;;2.42;0.80;;;5.60;99.90;;;;;;4957163;29;20038;-93
2023/10/12 06:23:30;;;;;;;3.53;1.00;;;5.60;99.90;;;;;;4957326;29;20031;-92
2023/10/12 06:25:56;;;;;;;7.32;0.90;;;5.60;99.90;;;;;;4956797;29;20114;-92
2023/10/12 06:28:23;;;;;;;2.30;0.95;;;5.60;99.90;;;;;;4957207;29;20055;-91
2023/10/12 06:30:50;;;;;;;4.55;1.27;;;5.60;99.90;;;;;;4957001;29;20023;-92
2023/10/12 06:33:17;;;;;;;6.80;0.98;;;5.50;99.90;;;;;;4956163;28;20035;-92
2023/10/12 06:35:58;;;;;;;5.43;1.02;;;5.50;99.90;;;;;;4956152;29;20066;-92
2023/10/12 06:38:47;;;;;;;5.05;1.20;;;5.50;99.90;;;;;;4957187;29;20024;-93
2023/10/12 06:41:58;;;;;;;3.47;1.15;;;5.50;99.90;;;;;;4956338;29;20038;-94
2023/10/12 06:44:27;;;;;;;4.10;0.88;;;5.50;99.90;;;;;;4957698;29;20027;-94
2023/10/12 06:46:57;;;;;;;6.97;0.95;;;5.40;99.90;;;;;;4965476;28;20193;-91
2023/10/12 06:49:24;;;;;;;5.18;1.00;;;5.40;99.90;;;;;;4963537;29;20045;-91
2023/10/12 06:52:00;;;;;;;3.08;1.13;;;5.40;99.90;;;;;;4963216;29;20035;-92
2023/10/12 06:54:39;;;;;;;7.20;1.20;;;5.40;99.90;;;;;;4960572;29;20019;-91
2023/10/12 07:00:17;;;;;;;5.97;1.35;;;5.40;99.90;;;;;;4956387;29;20031;-91
2023/10/12 07:02:44;;;;;;;4.53;1.08;;;5.40;99.90;;;;;;4956406;29;20066;-91
2023/10/12 07:05:10;;;;;;;4.93;1.13;;;5.40;99.90;;;;;;4957319;29;20027;-91
2023/10/12 07:07:41;;;;;;;5.80;1.15;;;5.40;99.90;;;;;;4957876;29;20037;-92
2023/10/12 07:12:48;;;;;;;3.13;1.10;;;5.40;99.90;;;;;;4957414;28;20034;-92
2023/10/12 07:15:22;;;;;;;9.38;1.25;;;5.40;99.90;;;;;;4956380;29;20033;-92
2023/10/12 07:17:51;;;;;;;10.90;1.23;;;5.40;99.90;;;;;;4956148;29;20027;-92
2023/10/12 07:25:43;;;;;;;2.05;0.70;;;5.50;99.90;;;;;;4956318;28;20027;-91
2023/10/12 07:28:16;;;;;;;12.88;1.40;;;5.40;99.90;;;;;;4955498;29;20038;-92
2023/10/12 07:31:05;;;;;;;6.85;1.10;;;5.40;99.90;;;;;;4955212;29;20114;-90
2023/10/12 07:33:33;;;;;;;6.78;1.05;;;5.40;99.90;;;;;;4955761;28;20023;-91
2023/10/12 07:36:17;;;;;;;4.57;1.05;;;5.40;99.90;;;;;;4954702;29;20039;-90
2023/10/12 07:38:45;;;;;;;4.13;1.15;;;5.40;99.90;;;;;;4954537;29;20091;-89
2023/10/12 07:41:11;;;;;;;4.25;0.93;;;5.40;99.90;;;;;;4956742;28;20042;-90
2023/10/12 07:43:38;;;;;;;6.28;1.40;;;5.40;99.90;;;;;;4955064;28;20023;-89
2023/10/12 07:46:21;;;;;;;6.45;1.42;;;5.40;99.90;;;;;;4955849;29;20477;-89
2023/10/12 07:48:47;;;;;;;4.85;1.30;;;5.40;99.90;;;;;;4955130;29;20043;-89
2023/10/12 07:51:54;;;;;;;8.02;1.00;;;5.50;99.90;;;;;;4953980;29;20023;-89
2023/10/12 07:54:42;;;;;;;5.97;1.58;;;5.50;99.90;;;;;;4951841;29;20043;-90
2023/10/12 07:56:53;;;;;;;4.78;0.90;;;5.60;99.90;;;;;;4955288;29;20114;-90
2023/10/12 07:59:22;;;;;;;4.28;1.00;;;5.60;99.90;;;;;;4954059;29;20036;-90
2023/10/12 08:01:50;;;;;;;5.57;1.10;;;5.60;99.90;;;;;;4954532;29;20106;-90
2023/10/12 08:04:31;;;;;;;11.15;1.83;;;5.60;99.90;;;;;;4947613;29;20070;-90
2023/10/12 08:06:57;;;;;;;3.97;0.93;;;5.70;99.90;;;;;;4952175;29;20042;-91
2023/10/12 08:11:53;;;;;;;9.07;1.00;;;5.80;99.90;;;;;;4956131;28;20031;-90
2023/10/12 08:19:42;;;;;;;3.38;0.90;;;5.90;99.90;;;;;;4955966;29;20049;-90
2023/10/12 08:22:57;;;;;;;3.50;0.95;;;6.00;99.90;;;;;;4954534;29;20067;-91
2023/10/12 08:24:56;;;;;;;5.25;0.90;;;6.00;99.90;;;;;;4948395;29;20043;-91
2023/10/12 08:27:23;;;;;;;11.43;1.35;;;6.10;99.90;;;;;;4954696;29;20027;-90
2023/10/12 08:32:27;;;;;;;7.03;1.00;;;6.30;99.90;;;;;;4955431;28;20035;-91
2023/10/12 08:37:26;;;;;;;6.78;1.02;;;6.40;99.90;;;;;;4950761;28;20031;-92
2023/10/12 08:44:58;;;;;;;4.45;0.63;;;6.70;99.90;;;;;;4955330;28;20024;-91
2023/10/12 08:47:44;;;;;;;4.95;1.00;;;6.80;99.90;;;;;;4953763;29;20051;-91
2023/10/12 08:52:50;;;;;;;4.78;1.00;;;7.00;99.90;;;;;;4955304;28;20496;-90
2023/10/12 08:55:24;;;;;;;7.28;0.73;;;7.10;99.90;;;;;;4953983;29;20049;-91
2023/10/12 08:58:15;;;;;;;7.45;0.90;;;7.20;99.90;;;;;;4954150;29;20031;-92
2023/10/12 09:00:44;;;;;;;5.30;0.90;;;7.30;99.90;;;;;;4954162;29;20118;-91
2023/10/12 09:05:45;;;;;;;6.03;1.20;;;7.60;99.90;;;;;;4949707;29;20050;-90
2023/10/12 09:13:45;;;;;;;7.72;1.42;;;8.00;99.90;;;;;;4962043;29;20042;-95
2023/10/12 09:16:11;;;;;;;5.65;0.82;;;8.20;99.90;;;;;;4963103;29;20034;-95
2023/10/12 09:18:46;;;;;;;4.03;1.40;;;8.40;99.90;;;;;;4962727;29;20031;-95
2023/10/12 09:27:26;;;;;;;7.22;1.30;;;9.00;99.90;;;;;;4929099;29;20027;-96
2023/10/12 09:29:57;;;;;;;6.45;1.00;;;9.20;99.90;;;;;;4953778;29;20042;-95
2023/10/12 09:32:26;;;;;;;2.80;0.95;;;9.30;99.90;;;;;;4953688;29;20035;-96
2023/10/12 09:37:45;;;;;;;4.10;1.00;;;9.70;99.90;;;;;;4955216;29;20038;-94
2023/10/12 09:40:27;;;;;;;3.30;0.98;;;9.80;99.90;;;;;;4954395;29;20027;-95
2023/10/12 09:42:59;;;;;;;7.80;1.35;;;10.10;99.90;;;;;;4960979;29;20027;-95
2023/10/12 09:45:33;;;;;;;10.40;1.40;;;10.20;99.90;;;;;;4958687;29;20023;-96
2023/10/12 09:48:05;;;;;;;7.05;1.40;;;10.40;99.90;;;;;;4961932;29;20102;-95
2023/10/12 09:50:32;;;;;;;6.30;1.67;;;10.60;99.90;;;;;;4960010;29;20031;-95
2023/10/12 09:53:12;;;;;;;6.00;1.30;;;10.70;99.90;;;;;;4956123;29;20027;-95
2023/10/12 09:55:40;;;;;;;12.02;1.45;;;10.90;99.90;;;;;;4955093;29;20047;-96
2023/10/12 09:58:22;;;;;;;7.75;1.15;;;11.10;99.90;;;;;;4955242;29;20098;-96
2023/10/12 10:01:15;;;;;;;6.85;1.55;;;11.20;99.90;;;;;;4955630;29;20023;-96
2023/10/12 10:03:52;;;;;;;6.75;1.48;;;11.40;99.90;;;;;;4951794;29;20050;-96
2023/10/12 10:06:28;;;;;;;10.10;1.65;;;11.70;99.90;;;;;;4936638;29;20031;-95
2023/10/12 10:11:41;;;;;;;6.35;1.40;;;12.00;99.90;;;;;;4959705;29;20559;-96
2023/10/12 10:14:13;;;;;;;10.73;1.90;;;12.00;99.90;;;;;;4958791;29;20039;-94
2023/10/12 10:16:47;;;;;;;6.20;1.73;;;12.10;99.90;;;;;;4958902;29;20090;-94
2023/10/12 10:19:14;;;;;;;5.07;1.42;;;12.10;99.90;;;;;;4958285;29;20113;-96
2023/10/12 10:22:05;;;;;;;3.33;1.17;;;12.20;99.90;;;;;;4958056;29;20035;-95
2023/10/12 10:24:55;;;;;;;10.75;1.67;;;12.10;99.90;;;;;;4957874;29;20062;-96
2023/10/12 10:27:35;;;;;;;7.22;1.40;;;12.10;99.90;;;;;;4958354;29;20035;-95
2023/10/12 10:30:37;;;;;;;4.43;1.17;;;12.20;99.90;;;;;;4957087;29;20050;-95
2023/10/12 10:33:17;;;;;;;8.15;1.73;;;12.20;99.90;;;;;;4948919;28;20031;-96
2023/10/12 10:41:37;;;;;;;6.75;1.30;;;12.40;99.90;;;;;;4959086;29;20035;-95
2023/10/12 10:44:03;;;;;;;7.63;1.40;;;12.40;99.90;;;;;;4958303;29;20469;-93
2023/10/12 10:46:29;;;;;;;7.63;1.30;;;12.50;99.90;;;;;;4957594;29;20082;-94
2023/10/12 10:48:55;;;;;;;6.18;1.25;;;12.60;99.90;;;;;;4957410;29;20062;-94
2023/10/12 10:51:32;;;;;;;6.55;1.20;;;12.70;99.90;;;;;;4957279;29;20061;-95
2023/10/12 10:53:58;;;;;;;7.20;1.30;;;12.80;99.90;;;;;;4957431;29;20039;-94
2023/10/12 10:56:35;;;;;;;11.25;2.05;;;12.90;99.90;;;;;;4955904;29;20027;-95
2023/10/12 10:59:06;;;;;;;11.45;2.67;;;12.90;99.90;;;;;;4955846;29;20109;-95
2023/10/12 11:01:32;;;;;;;7.82;1.55;;;13.00;99.90;;;;;;4936601;29;20511;-95
2023/10/12 11:04:00;;;;;;;9.35;1.77;;;13.10;99.90;;;;;;4936846;29;20024;-95
2023/10/12 11:06:30;;;;;;;9.00;1.42;;;13.20;99.90;;;;;;4937227;29;20088;-94
2023/10/12 11:09:06;;;;;;;7.85;1.83;;;13.40;99.90;;;;;;4937333;29;20047;-94
2023/10/12 11:11:37;;;;;;;11.30;1.58;;;13.40;99.90;;;;;;4938248;29;20114;-93
2023/10/12 11:14:10;;;;;;;5.95;1.38;;;13.40;99.90;;;;;;4938015;29;20063;-94
2023/10/12 11:16:37;;;;;;;7.82;1.42;;;13.50;99.90;;;;;;4938328;29;20043;-93
2023/10/12 11:19:08;;;;;;;7.63;1.50;;;13.60;99.90;;;;;;4940257;29;20264;-93
2023/10/12 11:21:34;;;;;;;10.30;1.40;;;13.70;99.90;;;;;;4957028;29;20058;-93
2023/10/12 11:24:01;;;;;;;5.28;1.42;;;13.90;99.90;;;;;;4956495;29;20501;-92
2023/10/12 11:26:28;;;;;;;6.68;1.27;;;14.00;99.90;;;;;;4956885;29;20054;-93
2023/10/12 11:29:04;;;;;;;7.30;1.48;;;14.00;99.90;;;;;;4956275;29;20035;-93
2023/10/12 11:31:30;;;;;;;6.13;1.20;;;14.00;99.90;;;;;;4954015;28;20035;-94
2023/10/12 11:33:58;;;;;;;9.35;1.23;;;14.10;99.90;;;;;;4949653;29;20034;-93
2023/10/12 11:36:24;;;;;;;7.63;1.30;;;14.00;99.90;;;;;;4958562;29;20035;-92
2023/10/12 11:39:00;;;;;;;9.52;1.20;;;14.00;99.90;;;;;;4958624;28;20090;-93
2023/10/12 11:41:27;;;;;;;6.50;1.33;;;14.10;99.90;;;;;;4967993;29;20111;-93
2023/10/12 11:43:54;;;;;;;10.52;1.63;;;14.20;99.90;;;;;;4975269;29;20020;-92
2023/10/12 11:46:21;;;;;;;8.05;1.40;;;14.30;99.90;;;;;;4974430;29;20090;-92
2023/10/12 11:49:04;;;;;;;7.07;1.25;;;14.40;99.90;;;;;;4964396;29;20486;-92
2023/10/12 11:51:29;;;;;;;10.45;3.25;;;14.50;99.90;;;;;;4956097;29;20638;-91
2023/10/12 11:53:57;;;;;;;10.35;1.50;;;14.50;99.90;;;;;;4956200;29;20031;-92
2023/10/12 11:56:24;;;;;;;8.15;1.55;;;14.60;99.90;;;;;;4956000;29;20023;-92
2023/10/12 11:58:54;;;;;;;11.48;2.03;;;14.50;99.60;;;;;;4940201;29;20094;-91
2023/10/12 12:01:29;;;;;;;10.23;1.70;;;14.50;99.40;;;;;;4956655;28;20043;-92
2023/10/12 12:03:55;;;;;;;9.07;1.40;;;14.50;99.10;;;;;;4952930;29;20074;-91
2023/10/12 12:06:22;;;;;;;6.20;1.20;;;14.50;98.80;;;;;;4956272;29;20027;-92
2023/10/12 12:08:49;;;;;;;7.07;1.65;;;14.50;98.60;;;;;;4954913;29;20035;-91
2023/10/12 12:11:19;;;;;;;8.57;1.63;;;14.70;98.70;;;;;;4956751;29;20547;-91
2023/10/12 12:13:48;;;;;;;9.53;1.40;;;14.80;98.70;;;;;;4959456;28;20038;-91
2023/10/12 12:16:21;;;;;;;7.30;1.67;;;14.90;98.00;;;;;;4957085;29;20286;-90
2023/10/12 12:18:51;;;;;;;9.98;1.50;;;14.90;97.60;;;;;;4956937;29;20023;-90
2023/10/12 12:21:26;;;;;;;;;;;14.90;97.60;;;;;;4960077;29;20374;-91
2023/10/12 12:24:14;;;;;;;7.00;1.60;;;14.90;97.50;;;;;;4966108;28;20040;-88
2023/10/12 12:26:44;;;;;;;8.50;2.10;;;14.80;97.30;;;;;;4957472;29;20552;-90
2023/10/12 12:29:11;;;;;;;11.68;2.70;;;14.90;97.30;;;;;;4954302;29;20015;-91
2023/10/12 12:31:40;;;;;;;7.20;1.58;;;15.10;97.50;;;;;;4953513;28;20054;-91
2023/10/12 12:34:06;;;;;;;5.63;1.52;;;15.30;97.20;;;;;;4953299;29;20035;-91
2023/10/12 12:36:32;;;;;;;10.02;1.55;;;15.40;96.50;;;;;;4955456;28;20019;-92
2023/10/12 12:39:00;;;;;;;11.70;2.72;;;15.40;96.10;;;;;;4954424;29;20031;-89
2023/10/12 12:41:28;;;;;;;9.82;1.65;;;15.50;95.90;;;;;;4954740;29;20110;-92
2023/10/12 12:43:58;;;;;;;7.25;1.60;;;15.50;96.00;;;;;;4953748;29;20085;-91
2023/10/12 12:46:24;;;;;;;;;;;15.60;96.00;;;;;;4954074;28;20102;-90
2023/10/12 12:49:00;;;;;;;6.03;1.38;;;15.70;96.00;;;;;;4954238;29;20125;-91
2023/10/12 12:51:26;;;;;;;8.65;1.83;;;15.70;95.70;;;;;;4955799;28;20064;-89
2023/10/12 12:53:52;;;;;;;10.40;1.55;;;15.70;95.60;;;;;;4955724;29;20062;-87
2023/10/12 12:56:20;;;;;;;4.88;1.33;;;15.70;95.40;;;;;;4956566;28;20035;-89
2023/10/12 12:58:48;;;;;;;8.70;1.92;;;15.60;94.90;;;;;;4957638;28;20026;-89
2023/10/12 13:01:18;;;;;;;16.83;2.03;;;15.50;94.90;;;;;;4955845;28;20035;-89
2023/10/12 13:03:46;;;;;;;12.68;1.92;;;15.40;95.40;;;;;;4954203;29;20381;-90
2023/10/12 13:06:15;;;;;;;10.60;1.88;;;15.40;95.80;;;;;;4956055;29;20385;-90
2023/10/12 13:08:40;;;;;;;13.35;1.67;;;15.40;95.90;;;;;;4955387;28;20036;-91
2023/10/12 13:11:06;;;;;;;9.07;1.30;;;15.30;95.70;;;;;;4955778;28;20155;-91
2023/10/12 13:13:39;;;;;;;10.50;2.00;;;15.30;95.60;;;;;;4955318;29;20540;-91
2023/10/12 13:16:05;;;;;;;10.95;1.40;;;15.40;95.30;;;;;;4955343;29;20469;-92
2023/10/12 13:18:34;;;;;;;9.35;1.50;;;15.40;95.10;;;;;;4954539;29;20502;-90
2023/10/12 13:21:01;;;;;;;9.15;1.60;;;15.50;94.70;;;;;;4955378;28;20031;-89
2023/10/12 13:23:27;;;;;;;7.60;1.33;;;15.50;94.50;;;;;;4957427;29;20497;-90
2023/10/12 13:25:53;;;;;;;12.13;1.88;;;15.50;93.60;;;;;;4964672;28;20028;-88
2023/10/12 13:28:19;;;;;;;12.05;2.20;;;15.50;93.60;;;;;;4960077;28;20031;-91
2023/10/12 13:30:45;;;;;;;6.55;1.65;;;15.50;93.80;;;;;;4956393;28;20489;-91
2023/10/12 13:33:11;;;;;;;8.80;1.40;;;15.60;93.70;;;;;;4954768;29;20027;-91
2023/10/12 13:38:09;;;;;;;13.00;1.90;;;15.80;93.30;;;;;;4955658;28;20027;-90
2023/10/12 13:40:48;;;;;;;11.27;2.13;;;16.00;92.90;;;;;;4935513;29;20039;-92
2023/10/12 13:43:14;;;;;;;8.20;1.50;;;16.10;92.70;;;;;;4936988;29;20127;-90
2023/10/12 13:45:47;;;;;;;10.93;1.77;;;16.30;92.30;;;;;;4938710;29;20196;-90
2023/10/12 13:48:18;;;;;;;12.20;1.77;;;16.40;91.50;;;;;;4938803;29;20065;-89
2023/10/12 13:50:50;;;;;;;7.53;1.70;;;16.50;91.10;;;;;;4940177;29;20565;-91
2023/10/12 13:53:15;;;;;;;8.68;1.50;;;16.80;90.80;;;;;;4940901;29;20035;-92
2023/10/12 13:55:47;;;;;;;6.00;2.13;;;17.00;90.50;;;;;;4939363;29;20027;-89
2023/10/12 13:58:13;;;;;;;8.45;1.83;;;17.20;89.80;;;;;;4939040;29;20055;-90
2023/10/12 14:00:39;;;;;;;10.30;1.60;;;17.30;88.30;;;;;;4952717;29;20023;-91
2023/10/12 14:03:11;;;;;;;8.32;1.80;;;17.20;87.40;;;;;;4959157;28;20039;-90
2023/10/12 14:05:40;;;;;;;8.60;1.73;;;17.10;86.90;;;;;;4958146;29;20119;-91
2023/10/12 14:08:08;;;;;;;7.88;1.92;;;17.00;87.10;;;;;;4958039;29;20480;-92
2023/10/12 14:10:40;;;;;;;12.20;2.30;;;16.90;87.10;;;;;;4957983;29;20054;-91
2023/10/12 14:13:06;;;;;;;7.75;1.60;;;16.80;87.20;;;;;;4957853;29;20058;-91
2023/10/12 14:15:35;;;;;;;10.88;1.70;;;16.70;87.30;;;;;;4957256;29;20110;-90
2023/10/12 14:18:02;;;;;;;5.13;1.50;;;16.60;87.90;;;;;;4958043;28;20031;-91
2023/10/12 14:20:28;;;;;;;5.82;1.20;;;16.50;87.80;;;;;;4956458;29;20046;-90
2023/10/12 14:22:58;;;;;;;8.05;1.83;;;16.30;87.30;;;;;;4956557;29;20038;-90
2023/10/12 14:25:28;;;;;;;6.65;1.80;;;16.00;87.70;;;;;;4957800;28;20035;-91
2023/10/12 14:28:03;;;;;;;12.15;2.38;;;15.90;88.40;;;;;;4958729;28;20023;-90
2023/10/12 14:30:29;;;;;;;9.23;1.73;;;15.80;88.90;;;;;;4956749;29;20024;-89
2023/10/12 14:33:02;;;;;;;5.28;1.52;;;15.70;89.40;;;;;;4957012;29;20027;-92
2023/10/12 14:35:39;;;;;;;10.48;2.03;;;15.60;90.00;;;;;;4956829;29;20023;-91
2023/10/12 14:38:12;;;;;;;9.25;1.85;;;15.40;90.20;;;;;;4957164;29;20038;-90
2023/10/12 14:40:40;;;;;;;9.40;2.15;;;15.30;90.50;;;;;;4958125;28;20023;-90
2023/10/12 14:43:10;;;;;;;10.05;2.08;;;15.20;90.70;;;;;;4957308;29;20075;-91
2023/10/12 14:45:49;;;;;;;12.68;2.10;;;15.10;91.00;;;;;;4957739;29;20081;-89
2023/10/12 14:48:18;;;;;;;8.73;1.90;;;15.10;91.30;;;;;;4957300;29;20130;-89
2023/10/12 14:50:49;;;;;;;7.88;2.30;;;15.00;91.60;;;;;;4953507;29;20034;-91
2023/10/12 14:53:16;;;;;;;10.10;2.20;;;14.90;91.70;;;;;;4951003;28;20094;-94
2023/10/12 14:55:51;;;;;;;6.00;1.90;;;14.80;92.10;;;;;;4957139;29;20023;-92
2023/10/12 14:58:18;;;;;;;6.82;2.25;;;14.70;92.20;;;;;;4938979;29;20039;-91
2023/10/12 15:00:44;;;;;;;8.18;2.10;;;14.50;92.50;;;;;;4938841;29;20083;-90
2023/10/12 15:03:11;;;;;;;5.15;1.77;;;14.40;93.00;;;;;;4939891;29;20043;-90
2023/10/12 15:05:37;;;;;;;9.45;2.33;;;14.40;93.70;;;;;;4938976;29;20031;-91
2023/10/12 15:08:07;;;;;;;5.25;2.00;;;14.40;94.10;;;;;;4938777;29;20201;-89
2023/10/12 15:10:36;;;;;;;11.10;1.97;;;14.30;94.50;;;;;;4938453;29;20032;-90
2023/10/12 15:13:04;;;;;;;6.68;2.05;;;14.40;94.90;;;;;;4937849;29;20028;-90
2023/10/12 15:15:33;;;;;;;11.20;2.13;;;14.50;95.30;;;;;;4937440;29;20028;-91
2023/10/12 15:18:00;;;;;;;6.55;2.03;;;14.40;95.40;;;;;;4937914;29;20031;-90